sensor_id;sensor_type;location;lat;lon;timestamp;pressure;altitude;pressure_sealevel;temperature;humidity
43681;BME280;29281;50.356;30.894;2022-09-27T00:01:01;99111.48;;;14.77;96.54
43681;BME280;29281;50.356;30.894;2022-09-27T00:02:05;99112.62;;;14.75;96.28
43681;BME280;29281;50.356;30.894;2022-09-27T00:03:09;99112.40;;;14.68;96.41
43681;BME280;29281;50.356;30.894;2022-09-27T00:04:12;99112.73;;;14.65;96.63
43681;BME280;29281;50.356;30.894;2022-09-27T00:05:16;99117.59;;;14.70;96.40
43681;BME280;29281;50.356;30.894;2022-09-27T00:06:23;99111.25;;;14.71;96.29
43681;BME280;29281;50.356;30.894;2022-09-27T00:07:26;99113.92;;;14.71;96.13
43681;BME280;29281;50.356;30.894;2022-09-27T00:08:29;99109.87;;;14.67;96.40
43681;BME280;29281;50.356;30.894;2022-09-27T00:09:33;99108.39;;;14.64;96.59
43681;BME280;29281;50.356;30.894;2022-09-27T00:10:40;99119.91;;;14.65;96.83
43681;BME280;29281;50.356;30.894;2022-09-27T00:11:44;99116.44;;;14.72;96.68
43681;BME280;29281;50.356;30.894;2022-09-27T00:12:46;99125.52;;;14.80;96.15
43681;BME280;29281;50.356;30.894;2022-09-27T00:13:50;99126.71;;;14.85;95.78
43681;BME280;29281;50.356;30.894;2022-09-27T00:14:53;99124.41;;;14.90;95.78
43681;BME280;29281;50.356;30.894;2022-09-27T00:15:58;99118.54;;;14.87;95.89
43681;BME280;29281;50.356;30.894;2022-09-27T00:17:03;99104.48;;;14.85;95.56
43681;BME280;29281;50.356;30.894;2022-09-27T00:18:06;99105.98;;;14.79;95.68
43681;BME280;29281;50.356;30.894;2022-09-27T00:19:11;99107.50;;;14.82;95.69
43681;BME280;29281;50.356;30.894;2022-09-27T00:20:17;99106.06;;;14.69;96.01
43681;BME280;29281;50.356;30.894;2022-09-27T00:21:21;99105.87;;;14.63;96.29
43681;BME280;29281;50.356;30.894;2022-09-27T00:22:23;99099.84;;;14.61;96.80
43681;BME280;29281;50.356;30.894;2022-09-27T00:23:27;99103.34;;;14.61;96.85
43681;BME280;29281;50.356;30.894;2022-09-27T00:24:30;99105.60;;;14.74;96.99
43681;BME280;29281;50.356;30.894;2022-09-27T00:25:34;99099.64;;;14.80;97.17
43681;BME280;29281;50.356;30.894;2022-09-27T00:26:37;99101.13;;;14.83;96.67
43681;BME280;29281;50.356;30.894;2022-09-27T00:27:40;99099.48;;;14.82;96.81
43681;BME280;29281;50.356;30.894;2022-09-27T00:28:45;99093.92;;;14.75;96.82
43681;BME280;29281;50.356;30.894;2022-09-27T00:29:49;99097.89;;;14.71;96.90
43681;BME280;29281;50.356;30.894;2022-09-27T00:30:53;99091.67;;;14.62;97.52
43681;BME280;29281;50.356;30.894;2022-09-27T00:31:56;99087.16;;;14.63;97.54
43681;BME280;29281;50.356;30.894;2022-09-27T00:32:59;99080.45;;;14.59;97.21
43681;BME280;29281;50.356;30.894;2022-09-27T00:34:03;99075.72;;;14.53;97.69
43681;BME280;29281;50.356;30.894;2022-09-27T00:35:07;99069.64;;;14.42;97.99
43681;BME280;29281;50.356;30.894;2022-09-27T00:36:13;99062.47;;;14.43;98.39
43681;BME280;29281;50.356;30.894;2022-09-27T00:37:19;99069.38;;;14.54;97.98
43681;BME280;29281;50.356;30.894;2022-09-27T00:38:22;99069.08;;;14.57;98.07
43681;BME280;29281;50.356;30.894;2022-09-27T00:39:30;99072.55;;;14.49;99.48
43681;BME280;29281;50.356;30.894;2022-09-27T00:40:36;99069.08;;;14.57;99.37
43681;BME280;29281;50.356;30.894;2022-09-27T00:41:40;99061.59;;;14.60;98.67
43681;BME280;29281;50.356;30.894;2022-09-27T00:42:44;99067.24;;;14.57;98.18
43681;BME280;29281;50.356;30.894;2022-09-27T00:43:58;99070.71;;;14.50;98.21
43681;BME280;29281;50.356;30.894;2022-09-27T00:45:00;99065.67;;;14.47;98.32
43681;BME280;29281;50.356;30.894;2022-09-27T00:46:04;99063.35;;;14.52;98.18
43681;BME280;29281;50.356;30.894;2022-09-27T00:47:13;99052.47;;;14.45;98.45
43681;BME280;29281;50.356;30.894;2022-09-27T00:48:19;99050.80;;;14.44;98.34
43681;BME280;29281;50.356;30.894;2022-09-27T00:49:27;99052.09;;;14.40;98.85
43681;BME280;29281;50.356;30.894;2022-09-27T00:50:29;99049.70;;;14.37;98.97
43681;BME280;29281;50.356;30.894;2022-09-27T00:51:35;99049.04;;;14.35;98.92
43681;BME280;29281;50.356;30.894;2022-09-27T00:53:48;99050.72;;;14.36;99.03
43681;BME280;29281;50.356;30.894;2022-09-27T00:54:54;99043.92;;;14.41;99.33
43681;BME280;29281;50.356;30.894;2022-09-27T00:56:09;99045.76;;;14.41;99.08
43681;BME280;29281;50.356;30.894;2022-09-27T00:57:13;99038.02;;;14.38;99.24
43681;BME280;29281;50.356;30.894;2022-09-27T00:58:17;99040.69;;;14.38;99.17
43681;BME280;29281;50.356;30.894;2022-09-27T00:59:25;99037.75;;;14.41;98.91
43681;BME280;29281;50.356;30.894;2022-09-27T01:00:31;99035.34;;;14.38;99.15
43681;BME280;29281;50.356;30.894;2022-09-27T01:01:34;99037.37;;;14.36;99.16
43681;BME280;29281;50.356;30.894;2022-09-27T01:02:39;99036.14;;;14.30;99.36
43681;BME280;29281;50.356;30.894;2022-09-27T01:04:58;99035.77;;;14.25;100.00
43681;BME280;29281;50.356;30.894;2022-09-27T01:06:03;99033.12;;;14.07;100.00
43681;BME280;29281;50.356;30.894;2022-09-27T01:07:08;99045.17;;;14.12;100.00
43681;BME280;29281;50.356;30.894;2022-09-27T01:08:12;99037.31;;;14.10;100.00
43681;BME280;29281;50.356;30.894;2022-09-27T01:09:16;99024.35;;;14.15;100.00
43681;BME280;29281;50.356;30.894;2022-09-27T01:10:21;99026.56;;;14.20;100.00
43681;BME280;29281;50.356;30.894;2022-09-27T01:11:47;99028.89;;;14.23;100.00
43681;BME280;29281;50.356;30.894;2022-09-27T01:15:11;99026.30;;;14.31;100.00
43681;BME280;29281;50.356;30.894;2022-09-27T01:16:18;99022.33;;;14.35;100.00
43681;BME280;29281;50.356;30.894;2022-09-27T01:21:08;99015.47;;;14.32;99.56
43681;BME280;29281;50.356;30.894;2022-09-27T01:24:40;99013.33;;;14.36;99.40
43681;BME280;29281;50.356;30.894;2022-09-27T01:30:10;99021.11;;;14.29;99.41
43681;BME280;29281;50.356;30.894;2022-09-27T01:32:25;99016.16;;;14.34;99.34
43681;BME280;29281;50.356;30.894;2022-09-27T01:34:43;99017.30;;;14.32;99.37
43681;BME280;29281;50.356;30.894;2022-09-27T01:35:53;99022.41;;;14.43;98.98
43681;BME280;29281;50.356;30.894;2022-09-27T01:38:20;99011.16;;;14.39;99.05
43681;BME280;29281;50.356;30.894;2022-09-27T01:43:43;98989.95;;;14.38;99.18
43681;BME280;29281;50.356;30.894;2022-09-27T01:46:05;98979.08;;;14.31;99.41
43681;BME280;29281;50.356;30.894;2022-09-27T01:47:13;98970.22;;;14.31;99.47
43681;BME280;29281;50.356;30.894;2022-09-27T01:48:23;98970.69;;;14.26;99.86
43681;BME280;29281;50.356;30.894;2022-09-27T01:49:38;98972.48;;;14.18;100.00
43681;BME280;29281;50.356;30.894;2022-09-27T01:50:42;98974.46;;;14.16;100.00
43681;BME280;29281;50.356;30.894;2022-09-27T01:51:48;98980.15;;;14.21;100.00
43681;BME280;29281;50.356;30.894;2022-09-27T01:52:58;98978.50;;;14.20;100.00
43681;BME280;29281;50.356;30.894;2022-09-27T01:54:03;98982.16;;;14.19;100.00
43681;BME280;29281;50.356;30.894;2022-09-27T01:55:29;98977.97;;;14.16;100.00
43681;BME280;29281;50.356;30.894;2022-09-27T01:56:45;98983.84;;;14.20;100.00
43681;BME280;29281;50.356;30.894;2022-09-27T01:57:53;98982.36;;;14.25;100.00
43681;BME280;29281;50.356;30.894;2022-09-27T01:59:00;98980.80;;;14.15;100.00
43681;BME280;29281;50.356;30.894;2022-09-27T02:00:07;98976.83;;;14.19;100.00
43681;BME280;29281;50.356;30.894;2022-09-27T02:01:19;98979.16;;;14.22;100.00
43681;BME280;29281;50.356;30.894;2022-09-27T02:02:25;98980.00;;;14.22;100.00
43681;BME280;29281;50.356;30.894;2022-09-27T02:03:49;98982.36;;;14.25;100.00
43681;BME280;29281;50.356;30.894;2022-09-27T02:05:13;98992.42;;;14.31;100.00
43681;BME280;29281;50.356;30.894;2022-09-27T02:06:26;98993.69;;;14.19;100.00
43681;BME280;29281;50.356;30.894;2022-09-27T02:10:10;99000.89;;;14.27;100.00
43681;BME280;29281;50.356;30.894;2022-09-27T02:11:19;99005.86;;;14.22;100.00
43681;BME280;29281;50.356;30.894;2022-09-27T02:12:26;98998.69;;;14.22;100.00
43681;BME280;29281;50.356;30.894;2022-09-27T02:14:57;98995.70;;;14.25;100.00
43681;BME280;29281;50.356;30.894;2022-09-27T02:16:10;99001.20;;;14.24;100.00
43681;BME280;29281;50.356;30.894;2022-09-27T02:18:18;98997.23;;;14.28;100.00
43681;BME280;29281;50.356;30.894;2022-09-27T02:20:29;98992.20;;;14.25;100.00
43681;BME280;29281;50.356;30.894;2022-09-27T02:21:39;98986.70;;;14.26;100.00
43681;BME280;29281;50.356;30.894;2022-09-27T02:22:42;98986.70;;;14.26;100.00
43681;BME280;29281;50.356;30.894;2022-09-27T02:23:47;98982.89;;;14.29;100.00
43681;BME280;29281;50.356;30.894;2022-09-27T02:24:52;98981.83;;;14.22;100.00
43681;BME280;29281;50.356;30.894;2022-09-27T02:26:04;98970.69;;;14.26;100.00
43681;BME280;29281;50.356;30.894;2022-09-27T02:27:12;98971.52;;;14.27;100.00
43681;BME280;29281;50.356;30.894;2022-09-27T02:28:22;98970.38;;;14.29;100.00
43681;BME280;29281;50.356;30.894;2022-09-27T02:29:45;98970.59;;;14.36;100.00
43681;BME280;29281;50.356;30.894;2022-09-27T02:30:36;98967.70;;;14.29;100.00
43681;BME280;29281;50.356;30.894;2022-09-27T02:31:44;98966.03;;;14.28;100.00
43681;BME280;29281;50.356;30.894;2022-09-27T02:32:47;98968.85;;;14.27;100.00
43681;BME280;29281;50.356;30.894;2022-09-27T02:33:58;98964.31;;;14.19;100.00
43681;BME280;29281;50.356;30.894;2022-09-27T02:35:01;98973.88;;;14.30;100.00
43681;BME280;29281;50.356;30.894;2022-09-27T02:36:04;98971.41;;;14.36;100.00
43681;BME280;29281;50.356;30.894;2022-09-27T02:37:08;98974.26;;;14.35;100.00
43681;BME280;29281;50.356;30.894;2022-09-27T02:38:10;98974.63;;;14.40;100.00
43681;BME280;29281;50.356;30.894;2022-09-27T02:39:16;98964.33;;;14.45;100.00
43681;BME280;29281;50.356;30.894;2022-09-27T02:40:22;98964.64;;;14.42;100.00
43681;BME280;29281;50.356;30.894;2022-09-27T02:41:27;98957.46;;;14.42;100.00
43681;BME280;29281;50.356;30.894;2022-09-27T02:42:32;98959.54;;;14.31;100.00
43681;BME280;29281;50.356;30.894;2022-09-27T02:43:37;98957.89;;;14.38;100.00
43681;BME280;29281;50.356;30.894;2022-09-27T02:44:41;98958.48;;;14.24;100.00
43681;BME280;29281;50.356;30.894;2022-09-27T02:48:25;98959.01;;;14.27;100.00
43681;BME280;29281;50.356;30.894;2022-09-27T02:53:24;98954.47;;;14.20;100.00
43681;BME280;29281;50.356;30.894;2022-09-27T02:54:34;98952.98;;;14.25;100.00
43681;BME280;29281;50.356;30.894;2022-09-27T02:58:49;98958.17;;;14.27;100.00
43681;BME280;29281;50.356;30.894;2022-09-27T03:00:06;98953.25;;;14.14;100.00
43681;BME280;29281;50.356;30.894;2022-09-27T03:02:32;98948.45;;;14.18;100.00
43681;BME280;29281;50.356;30.894;2022-09-27T03:03:59;98951.27;;;14.16;100.00
43681;BME280;29281;50.356;30.894;2022-09-27T03:05:06;98951.00;;;14.27;100.00
43681;BME280;29281;50.356;30.894;2022-09-27T03:06:10;98947.55;;;14.35;100.00
43681;BME280;29281;50.356;30.894;2022-09-27T03:07:13;98940.75;;;14.40;100.00
43681;BME280;29281;50.356;30.894;2022-09-27T03:08:16;98941.53;;;14.33;100.00
43681;BME280;29281;50.356;30.894;2022-09-27T03:09:21;98936.34;;;14.31;100.00
43681;BME280;29281;50.356;30.894;2022-09-27T03:10:28;98940.01;;;14.30;100.00
43681;BME280;29281;50.356;30.894;2022-09-27T03:11:32;98932.67;;;14.32;100.00
43681;BME280;29281;50.356;30.894;2022-09-27T03:12:36;98929.70;;;14.35;100.00
43681;BME280;29281;50.356;30.894;2022-09-27T03:13:41;98932.02;;;14.38;100.00
43681;BME280;29281;50.356;30.894;2022-09-27T03:14:47;98918.17;;;14.35;100.00
43681;BME280;29281;50.356;30.894;2022-09-27T03:15:55;98922.18;;;14.39;100.00
43681;BME280;29281;50.356;30.894;2022-09-27T03:17:11;98921.50;;;14.37;100.00
43681;BME280;29281;50.356;30.894;2022-09-27T03:18:19;98926.56;;;14.40;100.00
43681;BME280;29281;50.356;30.894;2022-09-27T03:19:39;98924.41;;;14.43;100.00
43681;BME280;29281;50.356;30.894;2022-09-27T03:20:56;98912.83;;;14.35;100.00
43681;BME280;29281;50.356;30.894;2022-09-27T03:22:02;98920.84;;;14.35;100.00
43681;BME280;29281;50.356;30.894;2022-09-27T03:23:06;98922.09;;;14.23;100.00
43681;BME280;29281;50.356;30.894;2022-09-27T03:24:11;98912.90;;;14.17;100.00
43681;BME280;29281;50.356;30.894;2022-09-27T03:25:15;98920.26;;;14.23;100.00
43681;BME280;29281;50.356;30.894;2022-09-27T03:26:19;98910.11;;;14.27;100.00
43681;BME280;29281;50.356;30.894;2022-09-27T03:27:23;98912.63;;;14.28;100.00
43681;BME280;29281;50.356;30.894;2022-09-27T03:28:26;98913.45;;;14.29;100.00
43681;BME280;29281;50.356;30.894;2022-09-27T03:29:30;98907.80;;;14.32;100.00
43681;BME280;29281;50.356;30.894;2022-09-27T03:30:36;98906.99;;;14.39;100.00
43681;BME280;29281;50.356;30.894;2022-09-27T03:31:40;98905.31;;;14.38;100.00
43681;BME280;29281;50.356;30.894;2022-09-27T03:33:02;98905.88;;;14.42;100.00
43681;BME280;29281;50.356;30.894;2022-09-27T03:34:13;98908.23;;;14.45;100.00
43681;BME280;29281;50.356;30.894;2022-09-27T03:35:16;98900.06;;;14.47;100.00
43681;BME280;29281;50.356;30.894;2022-09-27T03:36:20;98905.25;;;14.48;100.00
43681;BME280;29281;50.356;30.894;2022-09-27T03:37:23;98905.92;;;14.50;100.00
43681;BME280;29281;50.356;30.894;2022-09-27T03:38:27;98906.42;;;14.54;100.00
43681;BME280;29281;50.356;30.894;2022-09-27T03:39:31;98905.92;;;14.50;100.00
43681;BME280;29281;50.356;30.894;2022-09-27T03:40:35;98908.59;;;14.50;100.00
43681;BME280;29281;50.356;30.894;2022-09-27T03:41:39;98911.08;;;14.52;100.00
43681;BME280;29281;50.356;30.894;2022-09-27T03:42:46;98906.42;;;14.54;100.00
43681;BME280;29281;50.356;30.894;2022-09-27T03:43:53;98905.09;;;14.50;100.00
43681;BME280;29281;50.356;30.894;2022-09-27T03:44:58;98911.22;;;14.42;100.00
43681;BME280;29281;50.356;30.894;2022-09-27T03:46:01;98915.25;;;14.46;100.00
43681;BME280;29281;50.356;30.894;2022-09-27T03:47:09;98918.23;;;14.43;100.00
43681;BME280;29281;50.356;30.894;2022-09-27T03:48:13;98915.31;;;14.36;100.00
43681;BME280;29281;50.356;30.894;2022-09-27T03:49:16;98913.15;;;14.32;100.00
43681;BME280;29281;50.356;30.894;2022-09-27T03:50:19;98911.16;;;14.34;100.00
43681;BME280;29281;50.356;30.894;2022-09-27T03:51:24;98906.66;;;14.34;100.00
43681;BME280;29281;50.356;30.894;2022-09-27T03:52:26;98908.55;;;14.42;100.00
43681;BME280;29281;50.356;30.894;2022-09-27T03:53:29;98910.75;;;14.47;100.00
43681;BME280;29281;50.356;30.894;2022-09-27T03:54:33;98913.27;;;14.48;100.00
43681;BME280;29281;50.356;30.894;2022-09-27T03:55:37;98913.59;;;14.53;100.00
43681;BME280;29281;50.356;30.894;2022-09-27T03:56:41;98911.97;;;14.60;100.00
43681;BME280;29281;50.356;30.894;2022-09-27T03:57:47;98913.33;;;14.64;100.00
43681;BME280;29281;50.356;30.894;2022-09-27T03:58:50;98921.00;;;14.67;100.00
43681;BME280;29281;50.356;30.894;2022-09-27T03:59:57;98913.80;;;14.60;100.00
43681;BME280;29281;50.356;30.894;2022-09-27T04:01:15;98915.95;;;14.56;100.00
43681;BME280;29281;50.356;30.894;2022-09-27T04:02:20;98919.91;;;14.44;100.00
43681;BME280;29281;50.356;30.894;2022-09-27T04:03:44;98917.55;;;14.41;100.00
43681;BME280;29281;50.356;30.894;2022-09-27T04:04:50;98913.98;;;14.32;100.00
43681;BME280;29281;50.356;30.894;2022-09-27T04:05:53;98915.45;;;14.27;100.00
43681;BME280;29281;50.356;30.894;2022-09-27T04:06:59;98915.27;;;14.20;100.00
43681;BME280;29281;50.356;30.894;2022-09-27T04:08:04;98911.56;;;14.21;100.00
43681;BME280;29281;50.356;30.894;2022-09-27T04:09:09;98915.81;;;14.32;100.00
43681;BME280;29281;50.356;30.894;2022-09-27T04:10:17;98907.86;;;14.40;100.00
43681;BME280;29281;50.356;30.894;2022-09-27T04:11:21;98906.55;;;14.44;100.00
43681;BME280;29281;50.356;30.894;2022-09-27T04:12:28;98904.56;;;14.46;100.00
43681;BME280;29281;50.356;30.894;2022-09-27T04:13:31;98913.89;;;14.42;100.00
43681;BME280;29281;50.356;30.894;2022-09-27T04:14:34;98912.05;;;14.42;100.00
43681;BME280;29281;50.356;30.894;2022-09-27T04:15:41;98911.22;;;14.42;100.00
43681;BME280;29281;50.356;30.894;2022-09-27T04:17:05;98908.55;;;14.42;100.00
43681;BME280;29281;50.356;30.894;2022-09-27T04:18:10;98903.05;;;14.43;100.00
43681;BME280;29281;50.356;30.894;2022-09-27T04:19:29;98893.80;;;14.38;100.00
43681;BME280;29281;50.356;30.894;2022-09-27T04:20:40;98902.73;;;14.47;100.00
43681;BME280;29281;50.356;30.894;2022-09-27T04:21:46;98901.73;;;14.48;100.00
43681;BME280;29281;50.356;30.894;2022-09-27T04:22:52;98903.73;;;14.46;100.00
43681;BME280;29281;50.356;30.894;2022-09-27T04:23:58;98907.92;;;14.48;100.00
43681;BME280;29281;50.356;30.894;2022-09-27T04:25:01;98900.53;;;14.42;100.00
43681;BME280;29281;50.356;30.894;2022-09-27T04:26:06;98895.72;;;14.46;100.00
43681;BME280;29281;50.356;30.894;2022-09-27T04:27:14;98899.22;;;14.46;100.00
43681;BME280;29281;50.356;30.894;2022-09-27T04:28:20;98890.84;;;14.41;100.00
43681;BME280;29281;50.356;30.894;2022-09-27T04:29:27;98893.05;;;14.46;100.00
43681;BME280;29281;50.356;30.894;2022-09-27T04:30:32;98893.05;;;14.46;100.00
43681;BME280;29281;50.356;30.894;2022-09-27T04:31:41;98891.89;;;14.48;100.00
43681;BME280;29281;50.356;30.894;2022-09-27T04:32:53;98886.39;;;14.50;100.00
43681;BME280;29281;50.356;30.894;2022-09-27T04:34:05;98889.55;;;14.53;100.00
43681;BME280;29281;50.356;30.894;2022-09-27T04:35:10;98890.73;;;14.51;100.00
43681;BME280;29281;50.356;30.894;2022-09-27T04:36:34;98890.89;;;14.49;100.00
43681;BME280;29281;50.356;30.894;2022-09-27T04:37:40;98885.71;;;14.48;100.00
43681;BME280;29281;50.356;30.894;2022-09-27T04:38:46;98890.89;;;14.49;100.00
43681;BME280;29281;50.356;30.894;2022-09-27T04:39:54;98890.22;;;14.47;100.00
43681;BME280;29281;50.356;30.894;2022-09-27T04:41:00;98889.76;;;14.60;100.00
43681;BME280;29281;50.356;30.894;2022-09-27T04:42:07;98894.06;;;14.53;100.00
43681;BME280;29281;50.356;30.894;2022-09-27T04:43:12;98888.91;;;14.51;100.00
43681;BME280;29281;50.356;30.894;2022-09-27T04:44:15;98890.39;;;14.54;100.00
43681;BME280;29281;50.356;30.894;2022-09-27T04:45:21;98895.42;;;14.57;100.00
43681;BME280;29281;50.356;30.894;2022-09-27T04:46:24;98893.42;;;14.59;100.00
43681;BME280;29281;50.356;30.894;2022-09-27T04:47:28;98894.27;;;14.59;100.00
43681;BME280;29281;50.356;30.894;2022-09-27T04:48:32;98902.27;;;14.51;100.00
43681;BME280;29281;50.356;30.894;2022-09-27T04:49:36;98899.41;;;14.53;100.00
43681;BME280;29281;50.356;30.894;2022-09-27T04:50:40;98902.58;;;14.48;100.00
43681;BME280;29281;50.356;30.894;2022-09-27T04:51:44;98893.95;;;14.36;100.00
43681;BME280;29281;50.356;30.894;2022-09-27T04:52:51;98891.37;;;14.45;100.00
43681;BME280;29281;50.356;30.894;2022-09-27T04:53:54;98904.74;;;14.53;100.00
43681;BME280;29281;50.356;30.894;2022-09-27T04:54:58;98896.39;;;14.48;100.00
43681;BME280;29281;50.356;30.894;2022-09-27T04:56:04;98895.24;;;14.50;100.00
43681;BME280;29281;50.356;30.894;2022-09-27T04:57:10;98893.41;;;14.51;100.00
43681;BME280;29281;50.356;30.894;2022-09-27T04:58:15;98899.41;;;14.53;100.00
43681;BME280;29281;50.356;30.894;2022-09-27T04:59:18;98887.25;;;14.58;100.00
43681;BME280;29281;50.356;30.894;2022-09-27T05:00:24;98896.78;;;14.61;100.00
43681;BME280;29281;50.356;30.894;2022-09-27T05:01:32;98890.59;;;14.60;100.00
43681;BME280;29281;50.356;30.894;2022-09-27T05:02:49;98889.39;;;14.55;100.00
43681;BME280;29281;50.356;30.894;2022-09-27T05:03:58;98878.25;;;14.67;100.00
43681;BME280;29281;50.356;30.894;2022-09-27T05:05:03;98882.64;;;14.76;100.00
43681;BME280;29281;50.356;30.894;2022-09-27T05:06:11;98880.13;;;14.83;100.00
43681;BME280;29281;50.356;30.894;2022-09-27T05:07:13;98877.81;;;14.88;100.00
43681;BME280;29281;50.356;30.894;2022-09-27T05:08:19;98871.79;;;14.78;100.00
43681;BME280;29281;50.356;30.894;2022-09-27T05:09:41;98881.13;;;14.74;100.00
43681;BME280;29281;50.356;30.894;2022-09-27T05:10:43;98876.41;;;14.68;100.00
43681;BME280;29281;50.356;30.894;2022-09-27T05:11:47;98876.45;;;14.76;100.00
43681;BME280;29281;50.356;30.894;2022-09-27T05:12:52;98877.65;;;14.82;100.00
43681;BME280;29281;50.356;30.894;2022-09-27T05:13:56;98871.11;;;14.84;100.00
43681;BME280;29281;50.356;30.894;2022-09-27T05:15:00;98871.47;;;14.81;100.00
43681;BME280;29281;50.356;30.894;2022-09-27T05:16:15;98875.47;;;14.85;100.00
43681;BME280;29281;50.356;30.894;2022-09-27T05:17:20;98874.30;;;14.80;100.00
43681;BME280;29281;50.356;30.894;2022-09-27T05:18:43;98878.29;;;14.75;100.00
43681;BME280;29281;50.356;30.894;2022-09-27T05:20:03;98871.27;;;14.74;100.00
43681;BME280;29281;50.356;30.894;2022-09-27T05:21:12;98869.63;;;14.82;100.00
43681;BME280;29281;50.356;30.894;2022-09-27T05:22:17;98868.60;;;14.83;100.00
43681;BME280;29281;50.356;30.894;2022-09-27T05:23:22;98871.63;;;14.80;100.00
43681;BME280;29281;50.356;30.894;2022-09-27T05:24:25;98871.79;;;14.78;100.00
43681;BME280;29281;50.356;30.894;2022-09-27T05:25:30;98871.63;;;14.80;100.00
43681;BME280;29281;50.356;30.894;2022-09-27T05:26:34;98874.47;;;14.86;100.00
43681;BME280;29281;50.356;30.894;2022-09-27T05:27:37;98875.47;;;14.85;100.00
43681;BME280;29281;50.356;30.894;2022-09-27T05:28:41;98863.77;;;14.86;100.00
43681;BME280;29281;50.356;30.894;2022-09-27T05:29:46;98872.98;;;14.92;100.00
43681;BME280;29281;50.356;30.894;2022-09-27T05:30:51;98869.48;;;14.91;100.00
43681;BME280;29281;50.356;30.894;2022-09-27T05:31:57;98870.80;;;14.87;100.00
43681;BME280;29281;50.356;30.894;2022-09-27T05:33:00;98863.97;;;14.93;100.00
43681;BME280;29281;50.356;30.894;2022-09-27T05:34:14;98870.12;;;14.85;100.00
43681;BME280;29281;50.356;30.894;2022-09-27T05:35:20;98868.64;;;14.91;100.00
43681;BME280;29281;50.356;30.894;2022-09-27T05:36:24;98873.47;;;14.87;100.00
43681;BME280;29281;50.356;30.894;2022-09-27T05:37:28;98867.31;;;14.95;100.00
43681;BME280;29281;50.356;30.894;2022-09-27T05:38:32;98864.80;;;14.93;100.00
43681;BME280;29281;50.356;30.894;2022-09-27T05:39:37;98867.31;;;15.03;100.00
43681;BME280;29281;50.356;30.894;2022-09-27T05:40:42;98869.83;;;15.12;100.00
43681;BME280;29281;50.356;30.894;2022-09-27T05:41:46;98861.31;;;15.17;100.00
43681;BME280;29281;50.356;30.894;2022-09-27T05:42:52;98867.34;;;15.19;100.00
43681;BME280;29281;50.356;30.894;2022-09-27T05:43:57;98860.14;;;15.28;100.00
43681;BME280;29281;50.356;30.894;2022-09-27T05:45:00;98866.53;;;15.27;100.00
43681;BME280;29281;50.356;30.894;2022-09-27T05:46:04;98860.14;;;15.28;100.00
43681;BME280;29281;50.356;30.894;2022-09-27T05:47:09;98861.16;;;15.19;100.00
43681;BME280;29281;50.356;30.894;2022-09-27T05:48:15;98858.99;;;15.22;100.00
43681;BME280;29281;50.356;30.894;2022-09-27T05:49:27;98869.01;;;15.28;100.00
43681;BME280;29281;50.356;30.894;2022-09-27T05:50:32;98867.17;;;15.29;100.00
43681;BME280;29281;50.356;30.894;2022-09-27T05:51:36;98867.69;;;15.24;100.00
43681;BME280;29281;50.356;30.894;2022-09-27T05:52:41;98869.36;;;15.25;100.00
43681;BME280;29281;50.356;30.894;2022-09-27T05:53:46;98873.36;;;15.29;100.00
43681;BME280;29281;50.356;30.894;2022-09-27T05:54:57;98871.69;;;15.28;100.00
43681;BME280;29281;50.356;30.894;2022-09-27T05:56:01;98868.84;;;15.30;100.00
43681;BME280;29281;50.356;30.894;2022-09-27T05:57:06;98876.36;;;15.18;100.00
43681;BME280;29281;50.356;30.894;2022-09-27T05:58:20;98875.20;;;15.21;100.00
43681;BME280;29281;50.356;30.894;2022-09-27T05:59:26;98862.33;;;15.32;100.00
43681;BME280;29281;50.356;30.894;2022-09-27T06:00:49;98867.35;;;15.35;100.00
43681;BME280;29281;50.356;30.894;2022-09-27T06:02:10;98875.88;;;15.47;100.00
43681;BME280;29281;50.356;30.894;2022-09-27T06:03:34;98869.87;;;15.53;100.00
43681;BME280;29281;50.356;30.894;2022-09-27T06:04:44;98866.36;;;15.53;100.00
43681;BME280;29281;50.356;30.894;2022-09-27T06:06:08;98865.69;;;15.51;100.00
43681;BME280;29281;50.356;30.894;2022-09-27T06:07:14;98861.66;;;15.46;100.00
43681;BME280;29281;50.356;30.894;2022-09-27T06:08:19;98863.22;;;15.57;100.00
43681;BME280;29281;50.356;30.894;2022-09-27T06:09:25;98861.36;;;15.66;100.00
43681;BME280;29281;50.356;30.894;2022-09-27T06:10:30;98862.87;;;15.68;100.00
43681;BME280;29281;50.356;30.894;2022-09-27T06:11:36;98855.83;;;15.59;100.00
43681;BME280;29281;50.356;30.894;2022-09-27T06:12:41;98857.01;;;15.65;100.00
43681;BME280;29281;50.356;30.894;2022-09-27T06:13:46;98867.20;;;15.61;100.00
43681;BME280;29281;50.356;30.894;2022-09-27T06:14:51;98861.69;;;15.63;100.00
43681;BME280;29281;50.356;30.894;2022-09-27T06:16:02;98868.20;;;15.60;100.00
43681;BME280;29281;50.356;30.894;2022-09-27T06:17:07;98865.89;;;15.57;100.00
43681;BME280;29281;50.356;30.894;2022-09-27T06:18:13;98867.38;;;15.60;100.00
43681;BME280;29281;50.356;30.894;2022-09-27T06:19:19;98872.56;;;15.61;100.00
43681;BME280;29281;50.356;30.894;2022-09-27T06:20:22;98869.72;;;15.71;100.00
43681;BME280;29281;50.356;30.894;2022-09-27T06:21:26;98870.20;;;15.74;100.00
43681;BME280;29281;50.356;30.894;2022-09-27T06:22:37;98872.55;;;15.86;100.00
43681;BME280;29281;50.356;30.894;2022-09-27T06:23:39;98863.67;;;15.77;100.00
43681;BME280;29281;50.356;30.894;2022-09-27T06:24:50;98869.72;;;15.63;100.00
43681;BME280;29281;50.356;30.894;2022-09-27T06:25:56;98869.70;;;15.79;100.00
43681;BME280;29281;50.356;30.894;2022-09-27T06:27:11;98870.88;;;15.85;100.00
43681;BME280;29281;50.356;30.894;2022-09-27T06:28:28;98863.02;;;15.83;100.00